createdAt,value
2022-07-28T00:00:22.834Z,99177.34
2022-07-28T00:02:52.072Z,99181.56
2022-07-28T00:05:19.797Z,99180.31
2022-07-28T00:07:47.822Z,99180.28
2022-07-28T00:10:16.086Z,99178.59
2022-07-28T00:12:43.955Z,99174.03
2022-07-28T00:15:12.817Z,99179.13
2022-07-28T00:17:40.842Z,99179.22
2022-07-28T00:20:12.495Z,99175.19
2022-07-28T00:22:43.189Z,99182.59
2022-07-28T00:25:11.418Z,99180.13
2022-07-28T00:27:39.128Z,99177.28
2022-07-28T00:30:08.322Z,99172.34
2022-07-28T00:32:36.119Z,99176.38
2022-07-28T00:35:08.324Z,99171.91
2022-07-28T00:37:39.869Z,99166.69
2022-07-28T00:40:08.931Z,99161.38
2022-07-28T00:42:36.658Z,99165.13
2022-07-28T00:45:04.765Z,99159.78
2022-07-28T00:47:33.602Z,99162.63
2022-07-28T00:50:01.991Z,99159.97
2022-07-28T00:52:29.900Z,99155.88
2022-07-28T00:55:00.489Z,99156.47
2022-07-28T00:57:30.722Z,99161.88
2022-07-28T00:59:58.570Z,99159.59
2022-07-28T01:02:26.455Z,99155.88
2022-07-28T01:04:54.207Z,99156.16
2022-07-28T01:07:28.969Z,99152.66
2022-07-28T01:10:05.507Z,99152.22
2022-07-28T01:12:47.187Z,99150.56
2022-07-28T01:15:21.655Z,99149.56
2022-07-28T01:17:54.793Z,99150.00
2022-07-28T01:20:26.016Z,99144.69
2022-07-28T01:23:05.701Z,99144.72
2022-07-28T01:25:45.251Z,99139.22
2022-07-28T01:28:25.410Z,99138.75
2022-07-28T01:30:56.602Z,99135.44
2022-07-28T01:33:29.422Z,99130.13
2022-07-28T01:36:00.518Z,99129.47
2022-07-28T01:38:28.576Z,99134.91
2022-07-28T01:40:57.790Z,99125.13
2022-07-28T01:43:26.907Z,99128.53
2022-07-28T01:45:56.894Z,99120.47
2022-07-28T01:48:26.245Z,99128.63
2022-07-28T01:50:55.801Z,99119.25
2022-07-28T01:53:24.772Z,99120.94
2022-07-28T01:55:53.640Z,99116.13
2022-07-28T01:58:23.666Z,99116.50
2022-07-28T02:00:52.079Z,99108.72
2022-07-28T02:03:23.759Z,99107.22
2022-07-28T02:05:54.087Z,99099.41
2022-07-28T02:08:23.359Z,99103.41
2022-07-28T02:11:05.567Z,99100.38
2022-07-28T02:13:38.040Z,99100.28
2022-07-28T02:16:08.001Z,99101.25
2022-07-28T02:18:38.489Z,99103.16
2022-07-28T02:21:08.124Z,99089.47
2022-07-28T02:23:36.280Z,99095.09
2022-07-28T02:26:05.903Z,99085.97
2022-07-28T02:28:33.669Z,99085.25
2022-07-28T02:31:09.925Z,99076.78
2022-07-28T02:34:00.358Z,99071.16
2022-07-28T02:36:32.206Z,99064.00
2022-07-28T02:39:03.659Z,99066.81
2022-07-28T02:41:34.582Z,99049.97
2022-07-28T02:44:07.598Z,99061.41
2022-07-28T02:46:38.219Z,99058.84
2022-07-28T02:49:13.523Z,99052.88
2022-07-28T02:51:42.081Z,99062.50
2022-07-28T02:54:10.531Z,99044.56
2022-07-28T02:56:38.674Z,99056.88
2022-07-28T02:59:06.455Z,99053.94
2022-07-28T03:01:34.906Z,99060.22
2022-07-28T03:04:02.591Z,99063.28
2022-07-28T03:06:31.679Z,99066.97
2022-07-28T03:08:59.283Z,99059.66
2022-07-28T03:11:29.844Z,99059.00
2022-07-28T03:13:57.440Z,99069.44
2022-07-28T03:16:25.187Z,99066.97
2022-07-28T03:18:55.224Z,99075.03
2022-07-28T03:21:22.844Z,99071.50
2022-07-28T03:23:52.654Z,99064.22
2022-07-28T03:26:26.454Z,99066.03
2022-07-28T03:28:54.351Z,99063.47
2022-07-28T03:31:22.200Z,99066.69
2022-07-28T03:33:49.954Z,99065.63
2022-07-28T03:36:20.212Z,99070.94
2022-07-28T03:38:55.179Z,99066.88
2022-07-28T03:41:22.961Z,99067.25
2022-07-28T03:43:51.629Z,99073.13
2022-07-28T03:46:21.422Z,99068.78
2022-07-28T03:48:49.194Z,99068.19
2022-07-28T03:51:16.877Z,99064.78
2022-07-28T03:53:45.425Z,99069.50
2022-07-28T03:56:14.867Z,99069.81
2022-07-28T03:58:42.544Z,99062.22
2022-07-28T04:01:10.302Z,99065.63
2022-07-28T04:03:43.693Z,99064.31
2022-07-28T04:06:11.927Z,99067.72
2022-07-28T04:08:39.653Z,99057.50
2022-07-28T04:11:07.314Z,99066.69
2022-07-28T04:13:37.250Z,99052.84
2022-07-28T04:16:05.860Z,99061.75
2022-07-28T04:18:33.518Z,99063.91
2022-07-28T04:21:01.841Z,99066.66
2022-07-28T04:23:30.703Z,99064.38
2022-07-28T04:25:58.337Z,99058.03
2022-07-28T04:28:26.313Z,99047.59
2022-07-28T04:30:55.355Z,99060.59
2022-07-28T04:33:23.069Z,99060.84
2022-07-28T04:35:52.644Z,99064.06
2022-07-28T04:38:20.899Z,99058.19
2022-07-28T04:40:48.950Z,99064.06
2022-07-28T04:43:16.717Z,99061.41
2022-07-28T04:45:53.535Z,99058.75
2022-07-28T04:48:23.922Z,99064.31
2022-07-28T04:50:52.763Z,99066.75
2022-07-28T04:53:20.911Z,99066.22
2022-07-28T04:55:49.317Z,99059.53
2022-07-28T04:58:18.372Z,99057.03
2022-07-28T05:00:49.836Z,99062.50
2022-07-28T05:03:17.981Z,99058.25
2022-07-28T05:05:52.982Z,99061.44
2022-07-28T05:08:25.837Z,99060.94
2022-07-28T05:10:54.361Z,99062.44
2022-07-28T05:13:21.913Z,99068.84
2022-07-28T05:15:49.599Z,99064.59
2022-07-28T05:18:17.240Z,99068.09
2022-07-28T05:20:44.875Z,99059.69
2022-07-28T05:23:14.999Z,99061.53
2022-07-28T05:25:42.634Z,99059.72
2022-07-28T05:28:10.259Z,99062.69
2022-07-28T05:30:38.287Z,99064.19
2022-07-28T05:33:06.034Z,99060.03
2022-07-28T05:35:33.690Z,99065.03
2022-07-28T05:38:01.297Z,99057.91
2022-07-28T05:40:30.288Z,99059.31
2022-07-28T05:42:57.928Z,99061.63
2022-07-28T05:45:25.690Z,99067.69
2022-07-28T05:47:54.072Z,99066.13
2022-07-28T05:50:24.075Z,99068.03
2022-07-28T05:52:51.721Z,99061.34
2022-07-28T05:55:19.794Z,99071.03
2022-07-28T05:57:48.871Z,99069.44
2022-07-28T06:00:17.827Z,99070.91
2022-07-28T06:02:47.161Z,99075.69
2022-07-28T06:05:15.283Z,99060.78
2022-07-28T06:07:44.368Z,99069.38
2022-07-28T06:10:13.007Z,99072.16
2022-07-28T06:12:41.907Z,99065.63
2022-07-28T06:15:13.661Z,99061.59
2022-07-28T06:17:41.375Z,99058.72
2022-07-28T06:20:10.292Z,99069.34
2022-07-28T06:22:44.946Z,99065.94
2022-07-28T06:25:16.550Z,99050.56
2022-07-28T06:27:46.317Z,99062.09
2022-07-28T06:30:15.561Z,99057.59
2022-07-28T06:32:43.484Z,99070.38
2022-07-28T06:35:12.053Z,99065.56
2022-07-28T06:37:39.768Z,99062.78
2022-07-28T06:40:08.918Z,99071.00
2022-07-28T06:42:36.589Z,99060.22
2022-07-28T06:45:04.712Z,99061.19
2022-07-28T06:47:33.827Z,99067.25
2022-07-28T06:50:01.650Z,99070.03
2022-07-28T06:52:30.026Z,99062.81
2022-07-28T06:54:58.056Z,99067.53
2022-07-28T06:57:33.349Z,99068.63
2022-07-28T07:00:02.821Z,99064.75
2022-07-28T07:02:30.712Z,99066.44
2022-07-28T07:04:59.701Z,99072.38
2022-07-28T07:07:27.378Z,99075.06
2022-07-28T07:09:55.224Z,99064.88
2022-07-28T07:12:23.024Z,99065.25
2022-07-28T07:14:50.707Z,99070.25
2022-07-28T07:17:18.412Z,99069.75
2022-07-28T07:19:46.065Z,99069.16
2022-07-28T07:22:15.827Z,99063.16
2022-07-28T07:24:43.562Z,99065.25
2022-07-28T07:27:11.244Z,99059.06
2022-07-28T07:29:39.001Z,99058.69
2022-07-28T07:32:10.705Z,99061.69
2022-07-28T07:34:40.320Z,99055.75
2022-07-28T07:37:11.962Z,99040.88
2022-07-28T07:39:41.559Z,99041.03
2022-07-28T07:42:09.427Z,99049.19
2022-07-28T07:44:37.074Z,99066.69
2022-07-28T07:47:05.053Z,99053.69
2022-07-28T07:49:45.531Z,99048.69
2022-07-28T07:52:14.142Z,99058.41
2022-07-28T07:54:43.286Z,99061.09
2022-07-28T07:57:11.147Z,99055.50
2022-07-28T07:59:38.871Z,99056.16
2022-07-28T08:02:07.392Z,99047.97
2022-07-28T08:04:37.461Z,99050.97
2022-07-28T08:07:06.158Z,99046.53
2022-07-28T08:09:34.038Z,99049.97
2022-07-28T08:12:03.325Z,99045.44
2022-07-28T08:14:30.963Z,99047.00
2022-07-28T08:16:59.511Z,99046.16
2022-07-28T08:19:27.392Z,99043.59
2022-07-28T08:21:55.387Z,99046.09
2022-07-28T08:24:33.720Z,99041.88
2022-07-28T08:27:04.026Z,99039.66
2022-07-28T08:29:32.092Z,99037.56
2022-07-28T08:32:01.314Z,99041.44
2022-07-28T08:34:33.421Z,99041.97
2022-07-28T08:37:02.965Z,99040.13
2022-07-28T08:39:30.805Z,99042.97
2022-07-28T08:42:00.992Z,99038.56
2022-07-28T08:44:37.017Z,99033.31
2022-07-28T08:47:05.486Z,99036.13
2022-07-28T08:49:33.659Z,99032.09
2022-07-28T08:52:07.562Z,99022.44
2022-07-28T08:54:35.618Z,99022.16
2022-07-28T08:57:04.259Z,99038.13
2022-07-28T08:59:33.314Z,99033.75
2022-07-28T09:02:01.108Z,99033.34
2022-07-28T09:04:28.804Z,99028.66
2022-07-28T09:06:57.083Z,99030.06
2022-07-28T09:09:24.701Z,99022.56
2022-07-28T09:11:52.566Z,99026.56
2022-07-28T09:14:20.303Z,99026.56
2022-07-28T09:16:49.241Z,99023.72
2022-07-28T09:19:16.947Z,99023.31
2022-07-28T09:21:44.718Z,99015.13
2022-07-28T09:24:35.896Z,99020.31
2022-07-28T09:27:06.682Z,99028.38
2022-07-28T09:29:36.061Z,99029.50
2022-07-28T09:32:05.798Z,99024.09
2022-07-28T09:34:41.336Z,99027.38
2022-07-28T09:37:09.570Z,99019.19
2022-07-28T09:39:38.201Z,99016.91
2022-07-28T09:42:06.415Z,99026.25
2022-07-28T09:44:34.068Z,99013.88
2022-07-28T09:47:02.056Z,99016.56
2022-07-28T09:49:43.571Z,99018.91
2022-07-28T09:52:12.407Z,99018.84
2022-07-28T09:54:41.195Z,98998.38
2022-07-28T09:57:11.679Z,99011.00
2022-07-28T09:59:43.753Z,99011.91
2022-07-28T10:02:24.772Z,99004.78
2022-07-28T10:04:55.555Z,99002.28
2022-07-28T10:07:23.297Z,98998.59
2022-07-28T10:10:02.619Z,98994.19
2022-07-28T10:12:31.947Z,98997.13
2022-07-28T10:15:00.822Z,98994.06
2022-07-28T10:17:30.397Z,98998.78
2022-07-28T10:20:01.070Z,98992.50
2022-07-28T10:22:32.923Z,98991.50
2022-07-28T10:25:02.505Z,98985.22
2022-07-28T10:27:30.333Z,98982.53
2022-07-28T10:29:59.897Z,98980.84
2022-07-28T10:32:29.477Z,98979.75
2022-07-28T10:35:04.990Z,98981.19
2022-07-28T10:37:38.878Z,98968.75
2022-07-28T10:40:10.677Z,98970.13
2022-07-28T10:42:40.158Z,98973.50
2022-07-28T10:45:10.040Z,98971.22
2022-07-28T10:47:37.730Z,98970.00
2022-07-28T10:50:08.687Z,98971.09
2022-07-28T10:52:47.188Z,98968.59
2022-07-28T10:55:21.880Z,98968.03
2022-07-28T10:58:01.954Z,98968.38
2022-07-28T11:00:55.316Z,98968.94
2022-07-28T11:03:38.294Z,98972.72
2022-07-28T11:06:27.469Z,98952.47
2022-07-28T11:08:55.531Z,98952.00
2022-07-28T11:11:45.852Z,98957.22
2022-07-28T11:14:34.007Z,98946.28
2022-07-28T11:17:19.728Z,98955.09
2022-07-28T11:22:46.529Z,98932.34
2022-07-28T11:25:18.618Z,98937.03
2022-07-28T11:28:05.585Z,98933.69
2022-07-28T11:30:58.252Z,98936.22
2022-07-28T11:33:29.146Z,98933.00
2022-07-28T11:35:58.193Z,98924.59
2022-07-28T11:38:27.850Z,98929.66
2022-07-28T11:40:57.281Z,98925.78
2022-07-28T11:43:40.644Z,98927.63
2022-07-28T11:46:34.726Z,98923.25
2022-07-28T11:49:23.284Z,98927.13
2022-07-28T11:52:30.657Z,98928.53
2022-07-28T11:55:00.566Z,98914.53
2022-07-28T11:57:29.151Z,98925.00
2022-07-28T12:00:01.524Z,98926.31
2022-07-28T12:02:31.565Z,98916.94
2022-07-28T12:05:11.869Z,98915.78
2022-07-28T12:07:48.091Z,98916.47
2022-07-28T12:10:54.539Z,98906.63
2022-07-28T12:13:26.345Z,98903.25
2022-07-28T12:15:54.074Z,98908.31
2022-07-28T12:18:21.850Z,98901.09
2022-07-28T12:20:53.754Z,98909.75
2022-07-28T12:23:34.868Z,98907.66
2022-07-28T12:26:13.480Z,98906.75
2022-07-28T12:28:50.436Z,98905.75
2022-07-28T12:31:18.261Z,98902.44
2022-07-28T12:33:45.995Z,98896.84
2022-07-28T12:36:14.729Z,98887.69
2022-07-28T12:38:42.601Z,98898.34
2022-07-28T12:41:16.563Z,98892.25
2022-07-28T12:43:50.695Z,98881.63
2022-07-28T12:46:21.482Z,98881.44
2022-07-28T12:48:49.799Z,98885.25
2022-07-28T12:51:31.253Z,98880.47
2022-07-28T12:53:58.919Z,98879.75
2022-07-28T12:56:28.137Z,98887.47
2022-07-28T12:59:06.464Z,98879.22
2022-07-28T13:01:47.951Z,98888.38
2022-07-28T13:04:16.490Z,98883.19
2022-07-28T13:06:44.645Z,98877.19
2022-07-28T13:09:23.327Z,98874.66
2022-07-28T13:11:52.534Z,98883.00
2022-07-28T13:14:42.445Z,98877.19
2022-07-28T13:17:10.403Z,98877.00
2022-07-28T13:19:38.103Z,98864.41
2022-07-28T13:22:09.234Z,98864.78
2022-07-28T13:24:37.244Z,98867.25
2022-07-28T13:27:06.926Z,98868.41
2022-07-28T13:29:35.549Z,98856.31
2022-07-28T13:32:03.683Z,98866.59
2022-07-28T13:34:31.561Z,98862.28
2022-07-28T13:36:59.324Z,98863.09
2022-07-28T13:39:27.523Z,98859.03
2022-07-28T13:41:58.137Z,98867.81
2022-07-28T13:44:28.626Z,98861.84
2022-07-28T13:46:58.276Z,98857.63
2022-07-28T13:49:27.724Z,98848.91
2022-07-28T13:51:55.563Z,98848.44
2022-07-28T13:54:23.508Z,98848.50
2022-07-28T13:57:09.408Z,98850.97
2022-07-28T13:59:40.258Z,98846.53
2022-07-28T14:02:15.097Z,98845.13
2022-07-28T14:04:46.024Z,98843.81
2022-07-28T14:07:20.339Z,98845.28
2022-07-28T14:09:48.664Z,98839.09
2022-07-28T14:12:16.290Z,98837.16
2022-07-28T14:14:48.490Z,98837.16
2022-07-28T14:20:05.216Z,98827.25
2022-07-28T14:22:32.926Z,98828.16
2022-07-28T14:25:00.746Z,98828.56
2022-07-28T14:27:29.305Z,98820.75
2022-07-28T14:29:58.523Z,98820.75
2022-07-28T14:32:26.231Z,98817.47
2022-07-28T14:34:53.936Z,98816.28
2022-07-28T14:37:22.410Z,98807.56
2022-07-28T14:39:50.030Z,98819.59
2022-07-28T14:42:17.724Z,98808.97
2022-07-28T14:44:45.438Z,98797.66
2022-07-28T14:47:15.323Z,98812.38
2022-07-28T14:49:57.991Z,98806.53
2022-07-28T14:52:26.385Z,98818.81
2022-07-28T14:54:54.587Z,98816.13
2022-07-28T14:57:24.978Z,98825.53
2022-07-28T15:00:12.108Z,98814.75
2022-07-28T15:02:41.773Z,98813.81
2022-07-28T15:05:11.090Z,98811.84
2022-07-28T15:07:39.016Z,98816.28
2022-07-28T15:10:07.375Z,98812.84
2022-07-28T15:12:35.237Z,98802.59
2022-07-28T15:15:02.886Z,98808.75
2022-07-28T15:17:30.542Z,98807.78
2022-07-28T15:19:59.562Z,98803.59
2022-07-28T15:22:27.268Z,98808.44
2022-07-28T15:24:58.036Z,98802.19
2022-07-28T15:27:33.094Z,98805.41
2022-07-28T15:30:02.538Z,98796.28
2022-07-28T15:32:30.880Z,98795.44
2022-07-28T15:35:00.104Z,98793.56
2022-07-28T15:37:28.851Z,98790.25
2022-07-28T15:39:56.463Z,98785.50
2022-07-28T15:42:24.139Z,98778.69
2022-07-28T15:44:52.864Z,98791.53
2022-07-28T15:47:20.912Z,98783.78
2022-07-28T15:49:48.527Z,98777.81
2022-07-28T15:52:17.970Z,98773.38
2022-07-28T15:54:45.585Z,98774.03
2022-07-28T15:57:13.893Z,98779.88
2022-07-28T15:59:49.510Z,98778.59
2022-07-28T16:02:18.360Z,98766.72
2022-07-28T16:04:53.634Z,98764.50
2022-07-28T16:07:28.478Z,98765.66
2022-07-28T16:09:56.989Z,98763.66
2022-07-28T16:12:25.841Z,98761.31
2022-07-28T16:14:54.095Z,98771.09
2022-07-28T16:17:22.283Z,98762.69
2022-07-28T16:19:51.259Z,98757.84
2022-07-28T16:22:19.176Z,98761.00
2022-07-28T16:24:48.555Z,98760.44
2022-07-28T16:27:16.318Z,98762.91
2022-07-28T16:29:44.706Z,98758.53
2022-07-28T16:32:12.747Z,98757.56
2022-07-28T16:34:40.540Z,98753.69
2022-07-28T16:37:08.219Z,98748.84
2022-07-28T16:39:35.898Z,98742.34
2022-07-28T16:42:05.431Z,98737.38
2022-07-28T16:44:33.683Z,98735.00
2022-07-28T16:47:01.856Z,98735.00
2022-07-28T16:49:29.570Z,98730.63
2022-07-28T16:51:58.227Z,98736.38
2022-07-28T16:54:25.915Z,98733.22
2022-07-28T16:56:55.331Z,98735.44
2022-07-28T16:59:24.573Z,98736.09
2022-07-28T17:02:05.472Z,98731.72
2022-07-28T17:04:33.270Z,98724.63
2022-07-28T17:07:01.003Z,98735.06
2022-07-28T17:09:28.677Z,98736.94
2022-07-28T17:11:56.355Z,98738.31
2022-07-28T17:14:25.401Z,98740.16
2022-07-28T17:16:53.186Z,98738.78
2022-07-28T17:19:22.059Z,98737.47
2022-07-28T17:21:49.868Z,98736.09
2022-07-28T17:24:18.008Z,98738.63
2022-07-28T17:29:36.681Z,98744.53
2022-07-28T17:32:04.349Z,98739.47
2022-07-28T17:34:32.048Z,98749.59
2022-07-28T17:36:59.677Z,98745.94
2022-07-28T17:39:27.543Z,98742.94
2022-07-28T17:41:55.111Z,98744.94
2022-07-28T17:44:22.986Z,98735.19
2022-07-28T17:46:55.184Z,98742.78
2022-07-28T17:49:22.942Z,98737.91
2022-07-28T17:51:50.627Z,98737.72
2022-07-28T17:54:22.789Z,98736.72
2022-07-28T17:56:52.453Z,98731.84
2022-07-28T17:59:21.416Z,98734.56
2022-07-28T18:01:49.171Z,98737.44
2022-07-28T18:04:18.542Z,98740.31
2022-07-28T18:06:46.873Z,98741.63
2022-07-28T18:09:15.447Z,98748.56
2022-07-28T18:11:55.866Z,98742.84
2022-07-28T18:14:25.862Z,98746.19
2022-07-28T18:16:53.528Z,98738.25
2022-07-28T18:19:22.555Z,98746.34
2022-07-28T18:21:50.184Z,98750.56
2022-07-28T18:24:18.809Z,98751.41
2022-07-28T18:26:46.689Z,98754.13
2022-07-28T18:29:14.587Z,98756.97
2022-07-28T18:31:46.459Z,98769.13
2022-07-28T18:34:15.325Z,98763.91
2022-07-28T18:36:44.828Z,98765.41
2022-07-28T18:39:12.668Z,98762.53
2022-07-28T18:41:46.218Z,98764.88
2022-07-28T18:44:15.818Z,98759.66
2022-07-28T18:46:43.800Z,98754.94
2022-07-28T18:49:11.729Z,98758.66
2022-07-28T18:51:39.467Z,98761.50
2022-07-28T18:54:14.355Z,98766.88
2022-07-28T18:56:42.803Z,98758.75
2022-07-28T18:59:10.481Z,98758.91
2022-07-28T19:01:38.271Z,98760.59
2022-07-28T19:04:06.323Z,98762.94
2022-07-28T19:06:34.010Z,98754.50
2022-07-28T19:09:02.071Z,98748.41
2022-07-28T19:11:32.156Z,98745.53
2022-07-28T19:14:00.080Z,98732.34
2022-07-28T19:16:27.774Z,98748.03
2022-07-28T19:18:55.390Z,98749.91
2022-07-28T19:21:24.354Z,98748.66
2022-07-28T19:23:52.907Z,98757.78
2022-07-28T19:26:21.650Z,98765.00
2022-07-28T19:28:51.229Z,98764.47
2022-07-28T19:31:19.161Z,98763.06
2022-07-28T19:33:47.080Z,98771.59
2022-07-28T19:36:14.919Z,98781.69
2022-07-28T19:38:44.080Z,98779.94
2022-07-28T19:41:14.007Z,98786.81
2022-07-28T19:43:41.703Z,98789.19
2022-07-28T19:46:11.107Z,98789.59
2022-07-28T19:48:39.341Z,98809.59
2022-07-28T19:51:07.159Z,98801.31
2022-07-28T19:53:36.944Z,98795.78
2022-07-28T19:56:08.725Z,98799.03
2022-07-28T19:58:37.202Z,98793.13
2022-07-28T20:01:05.809Z,98786.44
2022-07-28T20:04:02.983Z,98790.97
2022-07-28T20:06:25.309Z,98801.19
2022-07-28T20:08:53.954Z,98807.72
2022-07-28T20:11:21.642Z,98800.66
2022-07-28T20:13:49.558Z,98800.44
2022-07-28T20:16:17.631Z,98800.44
2022-07-28T20:18:46.949Z,98802.75
2022-07-28T20:21:14.605Z,98807.34
2022-07-28T20:23:42.229Z,98812.34
2022-07-28T20:26:10.211Z,98815.03
2022-07-28T20:28:38.764Z,98819.72
2022-07-28T20:31:07.482Z,98820.41
2022-07-28T20:33:35.238Z,98828.47
2022-07-28T20:36:04.826Z,98830.00
2022-07-28T20:38:32.525Z,98831.91
2022-07-28T20:41:00.305Z,98831.59
2022-07-28T20:43:37.070Z,98835.06
2022-07-28T20:46:06.197Z,98838.09
2022-07-28T20:48:34.938Z,98848.56
2022-07-28T20:51:04.006Z,98845.47
2022-07-28T20:53:31.700Z,98849.59
2022-07-28T20:55:59.468Z,98849.22
2022-07-28T20:58:27.428Z,98851.50
2022-07-28T21:00:55.158Z,98855.31
2022-07-28T21:03:23.152Z,98846.72
2022-07-28T21:05:50.839Z,98853.53
2022-07-28T21:08:20.326Z,98852.84
2022-07-28T21:10:48.554Z,98837.47
2022-07-28T21:13:16.256Z,98849.88
2022-07-28T21:15:44.005Z,98851.44
2022-07-28T21:18:11.649Z,98849.34
2022-07-28T21:20:39.380Z,98853.31
2022-07-28T21:23:07.012Z,98856.25
2022-07-28T21:25:36.021Z,98864.34
2022-07-28T21:28:21.204Z,98862.38
2022-07-28T21:30:48.953Z,98860.09
2022-07-28T21:33:22.391Z,98863.78
2022-07-28T21:35:50.786Z,98864.66
2022-07-28T21:38:18.506Z,98862.22
2022-07-28T21:40:47.432Z,98869.88
2022-07-28T21:43:15.149Z,98868.47
2022-07-28T21:45:42.851Z,98867.84
2022-07-28T21:48:10.587Z,98872.81
2022-07-28T21:50:38.287Z,98870.25
2022-07-28T21:53:05.933Z,98877.00
2022-07-28T21:55:33.608Z,98871.22
2022-07-28T21:58:02.846Z,98867.31
2022-07-28T22:00:30.663Z,98873.91
2022-07-28T22:03:00.269Z,98875.22
2022-07-28T22:05:28.317Z,98873.88
2022-07-28T22:07:56.173Z,98868.41
2022-07-28T22:10:23.885Z,98870.47
2022-07-28T22:12:51.560Z,98862.56
2022-07-28T22:15:20.546Z,98869.75
2022-07-28T22:17:48.502Z,98879.66
2022-07-28T22:20:16.172Z,98873.84
2022-07-28T22:22:43.942Z,98875.41
2022-07-28T22:25:11.812Z,98872.59
2022-07-28T22:27:39.447Z,98877.66
2022-07-28T22:30:08.782Z,98869.47
2022-07-28T22:32:37.913Z,98877.97
2022-07-28T22:35:06.654Z,98879.38
2022-07-28T22:37:34.319Z,98862.44
2022-07-28T22:40:02.071Z,98862.59
2022-07-28T22:42:29.778Z,98861.19
2022-07-28T22:44:57.483Z,98861.59
2022-07-28T22:47:25.324Z,98870.69
2022-07-28T22:49:56.083Z,98868.09
2022-07-28T22:52:25.957Z,98868.41
2022-07-28T22:54:54.156Z,98869.06
2022-07-28T22:57:22.673Z,98868.22
2022-07-28T22:59:51.003Z,98856.31
2022-07-28T23:02:19.261Z,98857.84
2022-07-28T23:04:51.406Z,98858.13
2022-07-28T23:07:50.799Z,98851.13
2022-07-28T23:10:10.329Z,98858.91
2022-07-28T23:12:38.209Z,98850.53
2022-07-28T23:15:07.028Z,98865.53
2022-07-28T23:17:34.639Z,98859.66
2022-07-28T23:20:02.543Z,98869.97
2022-07-28T23:22:31.635Z,98878.28
2022-07-28T23:24:59.376Z,98899.91
2022-07-28T23:27:27.018Z,98920.09
2022-07-28T23:29:55.425Z,98930.69
2022-07-28T23:32:23.243Z,98931.34
2022-07-28T23:34:50.930Z,98927.13
2022-07-28T23:37:18.677Z,98924.31
2022-07-28T23:39:47.705Z,98921.59
2022-07-28T23:42:15.352Z,98915.56
2022-07-28T23:44:43.115Z,98910.34
2022-07-28T23:47:10.762Z,98905.38
2022-07-28T23:49:38.442Z,98903.25
2022-07-28T23:52:06.474Z,98905.66
2022-07-28T23:54:34.224Z,98901.84
2022-07-28T23:57:03.279Z,98904.25
2022-07-28T23:59:32.271Z,98913.72
